Calumet, MN (55716)

11:34 AM CDT on September 20, 2014 (GMT -0500)
Grand Rapids-Itasca County-Newstrom Field | Change Station
CLOSE
Current Station
Airport
Location: Grand Rapids,
Elevation: 1355 ft
Nearby Weather Stations

Elev 1355 ft 47.21 °N, 93.51 °W | Updated 19 minutes ago

Partly Cloudy
Partly Cloudy
59 °F
Feels Like 59 °F
N
20
Wind Variable Wind from NW
Gusts 23 mph

Today
High -- | Low -- °F
--% Chance of Precip.
Yesterday
High -- | Low -- °F
Precip. -- in
6:57 AM 7:14 PM
Waning Crescent, 11% visible
Pressure 29.77 in
Visibility 10.0 miles
Clouds Few 2400 ft
Dew Point 46 °F
Humidity 63%
Rainfall 0.00 in
Snow Depth Not available.
UV 4 out of 12
Pollen 3.20 out of 12
Air Quality Not available.
Flu Activity Not available.
METAR KGPZ 201615Z AUTO 31017G20KT 10SM FEW024 15/08 A2977 RMK AO1

More Conditions Fewer Conditions

Pressure 29.77 in
Visibility 10.0 miles
Clouds Few 2400 ft
Dew Point 46 °F
Humidity 63%
Rainfall 0.00 in
Snow Depth Not available.
UV 4 out of 12
Pollen 3.20 out of 12
Air Quality Not available.
Flu Activity Not available.
METAR KGPZ 201615Z AUTO 31017G20KT 10SM FEW024 15/08 A2977 RMK AO1

More Conditions Fewer Conditions

10-Day Weather Forecast

Almanac

Astronomy

Sep. 20, 2014 Rise Set
Actual Time 6:57 AM CDT 7:14 PM CDT
Civil Twilight 6:26 AM CDT 7:45 PM CDT
Nautical Twilight 5:50 AM CDT 8:21 PM CDT
Astronomical Twilight 5:13 AM CDT 8:58 PM CDT
Moon 3:26 AM CDT 5:27 PM CDT
Length of Visible Light 13h 18m
Length of Day
12h 17m
Tomorrow will be 3m 23s shorter.
Waning Crescent, 11% of the Moon is Illuminated
Today
Waning Crescent
Sep 24
New
Oct 1
First Quarter
Oct 8
Full
Oct 15
Last Quarter

Today's Extremes

State Highs State Lows

Community

WunderPhotos

Upload Photos

1,754,892 photos uploaded!

Nearby

Snow Depth

Station Depth Elevation
No new snow has been reported.

Earthquake Activity

City Distance Mag. Time & Date
No recent earthquake activity has been reported nearby.
Minimum magnitude displayed is 2.5.

Coastal Water Temperatures

Place Temperature
No Stations Reporting

Nearby Weather Stations